M V Trinidad — LAIY4 — position and weather

sailwx.info

Track history (hours):
 
Tides and Currents Weather Stations Pressure Air Temp Water Temp Dewpoint Dewpoint Depression Visibility Wind Speed Wind Dir Waves Ship Positions

M V Trinidad

Last reported at 2014-Oct-18 22:22 UTC. Time now 2014-Oct-25 15:25 UTC.
Position N 37°03' E 126°11'.

Length 189 m; draft 8.8 m.

Type: Cargo ship. MMSI: 257425411.

Date/timePositionNaut miles runAvg speedWind from/ knotsBaromVisibWave heightAir tempDewpointWater temp
2014-Oct-18 22:22N 37°03' E 126°11'0 0.0
2014-Oct-18 19:10N 37°03' E 126°11'  
2014-Oct-12 15:21N 24°29' E 120°17'810.8
2014-Oct-12 14:33N 24°22' E 120°13'1212.0
2014-Oct-12 13:34N 24°11' E 120°06'1313.1
2014-Oct-12 12:33N 23°60' E 119°59'1312.6
2014-Oct-12 11:30N 23°48' E 119°53'5310.1
2014-Oct-12 06:12N 22°55' E 119°51'811.4
2014-Oct-12 05:30N 22°48' E 119°46'  
Track history (hours):
 
Tides and Currents Weather Stations Pressure Air Temp Water Temp Dewpoint Dewpoint Depression Visibility Wind Speed Wind Dir Waves Ship Positions

M V Trinidad

Last reported at 2014-Oct-18 22:22 UTC. Time now 2014-Oct-25 15:25 UTC.
Position N 37°03' E 126°11'.

Length 189 m; draft 8.8 m.

Type: Cargo ship. MMSI: 257425411.

Date/timePositionNaut miles runAvg speedWind from/ knotsBaromVisibWave heightAir tempDewpointWater temp
2014-Oct-18 22:22N 37°03' E 126°11'0 0.0
2014-Oct-18 19:10N 37°03' E 126°11'  
2014-Oct-12 15:21N 24°29' E 120°17'810.8
2014-Oct-12 14:33N 24°22' E 120°13'1212.0
2014-Oct-12 13:34N 24°11' E 120°06'1313.1
2014-Oct-12 12:33N 23°60' E 119°59'1312.6
2014-Oct-12 11:30N 23°48' E 119°53'5310.1
2014-Oct-12 06:12N 22°55' E 119°51'811.4
2014-Oct-12 05:30N 22°48' E 119°46'  

Dump ship's entire track history